createdAt,value
2018-12-18T00:00:34.170Z,22.77
2018-12-18T00:03:01.602Z,23.17
2018-12-18T00:05:34.071Z,20.60
2018-12-18T00:08:02.574Z,22.83
2018-12-18T00:10:35.703Z,23.83
2018-12-18T00:13:03.826Z,22.37
2018-12-18T00:15:31.230Z,25.13
2018-12-18T00:17:59.062Z,23.77
2018-12-18T00:20:26.621Z,24.60
2018-12-18T00:22:54.027Z,26.00
2018-12-18T00:25:21.477Z,24.90
2018-12-18T00:27:49.089Z,27.57
2018-12-18T00:30:16.494Z,25.97
2018-12-18T00:32:43.939Z,28.57
2018-12-18T00:35:11.387Z,29.20
2018-12-18T00:37:38.837Z,27.33
2018-12-18T00:40:21.494Z,28.03
2018-12-18T00:42:48.871Z,30.87
2018-12-18T00:45:16.335Z,30.57
2018-12-18T00:47:44.032Z,26.80
2018-12-18T00:50:11.630Z,29.10
2018-12-18T00:52:39.101Z,27.40
2018-12-18T00:55:07.570Z,27.70
2018-12-18T00:57:34.940Z,28.40
2018-12-18T01:00:02.555Z,28.47
2018-12-18T01:02:29.946Z,28.47
2018-12-18T01:04:57.350Z,28.93
2018-12-18T01:07:24.818Z,29.93
2018-12-18T01:09:52.223Z,30.30
2018-12-18T01:12:19.666Z,26.30
2018-12-18T01:14:47.077Z,27.40
2018-12-18T01:17:14.523Z,31.47
2018-12-18T01:19:41.982Z,31.60
2018-12-18T01:22:09.449Z,31.47
2018-12-18T01:24:36.897Z,29.20
2018-12-18T01:27:04.361Z,28.07
2018-12-18T01:29:31.801Z,28.50
2018-12-18T01:31:59.308Z,29.77
2018-12-18T01:34:26.682Z,28.57
2018-12-18T01:36:54.225Z,30.20
2018-12-18T01:39:27.650Z,29.70
2018-12-18T01:41:57.717Z,30.53
2018-12-18T01:44:31.501Z,29.63
2018-12-18T01:47:00.198Z,27.27
2018-12-18T01:49:27.617Z,28.37
2018-12-18T01:51:55.055Z,29.20
2018-12-18T01:54:22.499Z,31.00
2018-12-18T01:56:49.975Z,32.00
2018-12-18T01:59:17.392Z,29.63
2018-12-18T02:01:44.775Z,32.87
2018-12-18T02:04:12.185Z,32.47
2018-12-18T02:06:39.623Z,28.53
2018-12-18T02:09:07.610Z,28.23
2018-12-18T02:11:35.182Z,30.17
2018-12-18T02:14:02.694Z,30.20
2018-12-18T02:16:30.111Z,32.17
2018-12-18T02:18:57.518Z,33.70
2018-12-18T02:21:24.968Z,34.03
2018-12-18T02:23:52.413Z,33.20
2018-12-18T02:26:19.879Z,35.47
2018-12-18T02:28:47.451Z,30.77
2018-12-18T02:31:14.887Z,32.60
2018-12-18T02:33:42.344Z,34.50
2018-12-18T02:36:09.758Z,32.70
2018-12-18T02:38:37.277Z,37.53
2018-12-18T02:41:04.714Z,33.33
2018-12-18T02:43:32.272Z,34.17
2018-12-18T02:45:59.665Z,35.13
2018-12-18T02:48:27.447Z,37.53
2018-12-18T02:50:56.141Z,32.77
2018-12-18T02:53:23.701Z,33.80
2018-12-18T02:55:51.122Z,36.27
2018-12-18T02:58:18.562Z,35.50
2018-12-18T03:00:45.998Z,35.07
2018-12-18T03:03:13.454Z,32.80
2018-12-18T03:05:41.143Z,35.00
2018-12-18T03:08:08.645Z,34.73
2018-12-18T03:10:36.175Z,34.53
2018-12-18T03:13:03.667Z,30.87
2018-12-18T03:15:31.055Z,37.17
2018-12-18T03:17:58.526Z,32.87
2018-12-18T03:20:25.921Z,30.70
2018-12-18T03:22:53.880Z,32.67
2018-12-18T03:25:21.799Z,30.83
2018-12-18T03:27:49.755Z,31.50
2018-12-18T03:30:18.571Z,29.83
2018-12-18T03:32:50.914Z,33.60
2018-12-18T03:35:18.850Z,33.43
2018-12-18T03:37:46.232Z,33.33
2018-12-18T03:40:14.177Z,31.33
2018-12-18T03:42:41.572Z,29.70
2018-12-18T03:45:08.999Z,27.30
2018-12-18T03:47:36.566Z,29.17
2018-12-18T03:50:04.814Z,29.87
2018-12-18T03:52:32.261Z,30.87
2018-12-18T03:54:59.653Z,28.13
2018-12-18T03:57:27.058Z,32.67
2018-12-18T03:59:54.557Z,29.03
2018-12-18T04:02:22.075Z,29.33
2018-12-18T04:04:49.584Z,28.83
2018-12-18T04:07:17.077Z,30.57
2018-12-18T04:09:44.538Z,30.03
2018-12-18T04:12:16.506Z,29.83
2018-12-18T04:14:43.986Z,33.63
2018-12-18T04:17:11.387Z,32.17
2018-12-18T04:19:38.774Z,30.70
2018-12-18T04:22:06.190Z,31.90
2018-12-18T04:24:33.742Z,30.87
2018-12-18T04:27:01.144Z,33.07
2018-12-18T04:29:28.494Z,31.83
2018-12-18T04:31:55.870Z,33.10
2018-12-18T04:34:23.359Z,31.90
2018-12-18T04:36:50.745Z,30.67
2018-12-18T04:39:18.397Z,32.93
2018-12-18T04:41:45.836Z,31.17
2018-12-18T04:44:13.267Z,34.43
2018-12-18T04:46:40.658Z,34.87
2018-12-18T04:49:08.067Z,29.87
2018-12-18T04:51:35.571Z,30.83
2018-12-18T04:54:03.055Z,33.43
2018-12-18T04:56:30.490Z,35.97
2018-12-18T04:58:57.991Z,35.47
2018-12-18T05:01:25.395Z,34.20
2018-12-18T05:03:52.801Z,35.70
2018-12-18T05:06:20.234Z,32.37
2018-12-18T05:08:47.684Z,33.87
2018-12-18T05:11:15.170Z,33.70
2018-12-18T05:13:42.745Z,34.63
2018-12-18T05:16:10.122Z,31.93
2018-12-18T05:18:37.504Z,33.73
2018-12-18T05:21:04.933Z,31.40
2018-12-18T05:23:32.352Z,30.40
2018-12-18T05:25:59.942Z,32.60
2018-12-18T05:28:27.359Z,33.13
2018-12-18T05:30:55.622Z,32.17
2018-12-18T05:33:23.636Z,32.20
2018-12-18T05:35:51.082Z,30.80
2018-12-18T05:38:18.600Z,30.23
2018-12-18T05:40:46.023Z,31.37
2018-12-18T05:43:13.438Z,30.50
2018-12-18T05:45:40.842Z,31.33
2018-12-18T05:48:08.282Z,30.60
2018-12-18T05:50:35.674Z,29.07
2018-12-18T05:53:03.202Z,28.87
2018-12-18T05:55:30.596Z,28.03
2018-12-18T05:57:57.995Z,29.07
2018-12-18T06:00:25.486Z,30.20
2018-12-18T06:02:52.924Z,29.43
2018-12-18T06:05:20.322Z,28.87
2018-12-18T06:07:47.711Z,29.83
2018-12-18T06:10:16.198Z,30.60
2018-12-18T06:12:46.033Z,32.50
2018-12-18T06:15:13.834Z,30.90
2018-12-18T06:17:41.298Z,30.03
2018-12-18T06:20:08.819Z,29.87
2018-12-18T06:22:38.627Z,28.73
2018-12-18T06:25:06.351Z,29.77
2018-12-18T06:27:34.531Z,29.70
2018-12-18T06:30:03.515Z,29.77
2018-12-18T06:32:30.937Z,27.97
2018-12-18T06:34:58.310Z,26.97
2018-12-18T06:37:25.782Z,30.80
2018-12-18T06:39:53.249Z,29.40
2018-12-18T06:42:20.659Z,31.87
2018-12-18T06:44:48.073Z,31.90
2018-12-18T06:47:15.446Z,31.27
2018-12-18T06:49:42.990Z,33.87
2018-12-18T06:52:10.434Z,36.70
2018-12-18T06:54:38.961Z,33.83
2018-12-18T06:57:06.546Z,33.40
2018-12-18T06:59:33.930Z,34.27
2018-12-18T07:02:01.391Z,34.07
2018-12-18T07:04:28.792Z,33.17
2018-12-18T07:06:56.257Z,34.30
2018-12-18T07:09:23.897Z,35.93
2018-12-18T07:11:51.318Z,33.60
2018-12-18T07:14:18.731Z,34.07
2018-12-18T07:16:46.149Z,37.80
2018-12-18T07:19:13.615Z,39.10
2018-12-18T07:21:41.142Z,38.93
2018-12-18T07:24:14.103Z,35.70
2018-12-18T07:26:37.917Z,37.73
2018-12-18T07:29:05.367Z,41.77
2018-12-18T07:31:32.765Z,39.13
2018-12-18T07:34:00.235Z,41.07
2018-12-18T07:36:27.674Z,39.93
2018-12-18T07:38:55.110Z,43.83
2018-12-18T07:41:22.687Z,42.60
2018-12-18T07:43:50.183Z,42.57
2018-12-18T07:46:17.585Z,40.80
2018-12-18T07:48:45.029Z,44.40
2018-12-18T07:51:12.429Z,53.63
2018-12-18T07:53:39.810Z,49.17
2018-12-18T07:56:07.231Z,45.67
2018-12-18T07:58:34.633Z,45.77
2018-12-18T08:01:02.045Z,44.77
2018-12-18T08:03:29.549Z,44.93
2018-12-18T08:05:56.968Z,44.40
2018-12-18T08:08:24.381Z,44.90
2018-12-18T08:10:51.804Z,42.00
2018-12-18T08:13:19.219Z,41.40
2018-12-18T08:15:46.713Z,42.43
2018-12-18T08:18:14.125Z,37.17
2018-12-18T08:20:41.543Z,37.47
2018-12-18T08:23:08.975Z,38.30
2018-12-18T08:25:36.391Z,38.37
2018-12-18T08:28:03.841Z,39.63
2018-12-18T08:30:31.256Z,42.37
2018-12-18T08:35:53.046Z,39.63
2018-12-18T08:38:20.629Z,36.90
2018-12-18T08:40:48.071Z,36.77
2018-12-18T08:43:15.482Z,38.67
2018-12-18T08:45:42.869Z,38.23
2018-12-18T08:48:10.268Z,36.67
2018-12-18T08:50:38.657Z,37.20
2018-12-18T08:53:07.151Z,37.40
2018-12-18T08:55:34.554Z,36.47
2018-12-18T08:58:01.950Z,37.27
2018-12-18T09:00:30.482Z,34.57
2018-12-18T09:03:01.804Z,34.23
2018-12-18T09:05:29.205Z,31.30
2018-12-18T09:07:57.539Z,30.77
2018-12-18T09:10:24.986Z,27.97
2018-12-18T09:12:52.378Z,28.47
2018-12-18T09:15:25.469Z,26.30
2018-12-18T09:17:52.862Z,24.43
2018-12-18T09:20:20.258Z,24.03
2018-12-18T09:22:47.662Z,23.40
2018-12-18T09:25:15.178Z,23.27
2018-12-18T09:27:43.334Z,23.63
2018-12-18T09:30:10.799Z,24.97
2018-12-18T09:32:38.267Z,23.90
2018-12-18T09:35:06.735Z,25.50
2018-12-18T09:37:34.128Z,25.03
2018-12-18T09:40:01.859Z,24.37
2018-12-18T09:42:35.193Z,23.93
2018-12-18T09:45:02.998Z,25.83
2018-12-18T09:47:30.386Z,28.43
2018-12-18T09:49:57.854Z,28.13
2018-12-18T09:52:25.243Z,32.43
2018-12-18T09:54:52.665Z,29.83
2018-12-18T09:57:25.771Z,30.30
2018-12-18T09:59:53.193Z,31.07
2018-12-18T10:02:20.613Z,28.93
2018-12-18T10:04:48.024Z,30.20
2018-12-18T10:07:15.464Z,31.90
2018-12-18T10:09:42.871Z,31.43
2018-12-18T10:12:10.295Z,33.83
2018-12-18T10:14:37.721Z,32.63
2018-12-18T10:17:05.126Z,57.47
2018-12-18T10:19:32.531Z,48.63
2018-12-18T10:22:00.813Z,45.00
2018-12-18T10:24:28.215Z,38.83
2018-12-18T10:26:55.638Z,44.03
2018-12-18T10:29:23.049Z,28.23
2018-12-18T10:31:50.603Z,26.87
2018-12-18T10:34:19.765Z,29.20
2018-12-18T10:36:47.286Z,25.43
2018-12-18T10:39:15.510Z,26.57
2018-12-18T10:41:42.942Z,28.20
2018-12-18T10:44:11.420Z,30.10
2018-12-18T10:46:38.866Z,29.50
2018-12-18T10:49:09.203Z,27.50
2018-12-18T10:51:36.602Z,20.40
2018-12-18T10:54:04.206Z,19.43
2018-12-18T10:56:31.721Z,16.90
2018-12-18T10:58:59.264Z,15.90
2018-12-18T11:01:32.364Z,17.57
2018-12-18T11:03:59.798Z,15.90
2018-12-18T11:06:27.207Z,17.23
2018-12-18T11:08:54.603Z,15.73
2018-12-18T11:11:21.990Z,16.53
2018-12-18T11:13:49.439Z,16.30
2018-12-18T11:16:16.919Z,15.87
2018-12-18T11:18:44.733Z,16.93
2018-12-18T11:21:12.225Z,15.50
2018-12-18T11:23:39.683Z,14.97
2018-12-18T11:26:07.364Z,13.57
2018-12-18T11:28:34.875Z,13.00
2018-12-18T11:31:02.387Z,12.87
2018-12-18T11:33:29.985Z,13.47
2018-12-18T11:35:57.361Z,13.93
2018-12-18T11:38:24.815Z,13.93
2018-12-18T11:40:52.330Z,13.00
2018-12-18T11:43:20.054Z,12.67
2018-12-18T11:45:47.465Z,14.07
2018-12-18T11:48:14.887Z,14.80
2018-12-18T11:50:42.287Z,14.70
2018-12-18T11:53:09.690Z,15.03
2018-12-18T11:55:37.109Z,14.47
2018-12-18T11:58:04.527Z,16.17
2018-12-18T12:00:32.027Z,15.37
2018-12-18T12:02:59.431Z,15.43
2018-12-18T12:05:26.948Z,17.20
2018-12-18T12:07:54.369Z,15.77
2018-12-18T12:10:24.020Z,15.47
2018-12-18T12:12:51.562Z,17.37
2018-12-18T12:15:19.061Z,15.43
2018-12-18T12:17:46.550Z,18.80
2018-12-18T12:20:13.977Z,17.87
2018-12-18T12:22:41.418Z,17.17
2018-12-18T12:25:08.826Z,19.13
2018-12-18T12:27:41.957Z,17.97
2018-12-18T12:30:09.606Z,17.33
2018-12-18T12:32:37.046Z,19.47
2018-12-18T12:35:05.122Z,23.53
2018-12-18T12:37:32.595Z,21.50
2018-12-18T12:39:59.990Z,20.13
2018-12-18T12:42:27.397Z,18.30
2018-12-18T12:44:54.827Z,17.33
2018-12-18T12:47:22.268Z,16.47
2018-12-18T12:49:49.674Z,15.30
2018-12-18T12:52:17.063Z,16.33
2018-12-18T12:54:44.458Z,17.03
2018-12-18T12:57:12.151Z,14.93
2018-12-18T12:59:39.557Z,15.47
2018-12-18T13:02:06.945Z,13.40
2018-12-18T13:04:34.349Z,13.17
2018-12-18T13:07:01.793Z,13.27
2018-12-18T13:09:29.203Z,12.40
2018-12-18T13:11:56.590Z,8.63
2018-12-18T13:14:24.057Z,8.73
2018-12-18T13:16:51.446Z,7.97
2018-12-18T13:19:18.867Z,6.37
2018-12-18T13:21:46.278Z,5.50
2018-12-18T13:24:13.668Z,4.20
2018-12-18T13:26:41.063Z,4.47
2018-12-18T13:29:08.563Z,4.40
2018-12-18T13:31:36.078Z,4.53
2018-12-18T13:34:03.632Z,4.70
2018-12-18T13:36:31.023Z,5.57
2018-12-18T13:38:58.541Z,6.13
2018-12-18T13:41:25.984Z,5.87
2018-12-18T13:43:53.390Z,3.50
2018-12-18T13:46:20.805Z,5.30
2018-12-18T13:48:48.214Z,5.30
2018-12-18T13:51:15.647Z,5.83
2018-12-18T13:53:43.066Z,6.00
2018-12-18T13:56:10.506Z,7.10
2018-12-18T13:58:37.889Z,6.80
2018-12-18T14:01:05.411Z,5.30
2018-12-18T14:03:32.799Z,6.10
2018-12-18T14:06:00.250Z,12.17
2018-12-18T14:08:27.704Z,7.67
2018-12-18T14:10:55.102Z,4.73
2018-12-18T14:13:22.535Z,6.57
2018-12-18T14:15:49.984Z,9.57
2018-12-18T14:18:17.474Z,8.47
2018-12-18T14:20:44.874Z,6.47
2018-12-18T14:23:12.366Z,5.47
2018-12-18T14:25:39.802Z,4.23
2018-12-18T14:28:08.232Z,5.20
2018-12-18T14:30:35.701Z,4.63
2018-12-18T14:33:03.214Z,5.03
2018-12-18T14:35:30.602Z,4.00
2018-12-18T14:37:58.082Z,3.60
2018-12-18T14:40:25.621Z,3.33
2018-12-18T14:42:53.088Z,3.50
2018-12-18T14:45:20.489Z,3.93
2018-12-18T14:47:47.892Z,3.47
2018-12-18T14:50:15.326Z,3.70
2018-12-18T14:52:42.816Z,3.23
2018-12-18T14:55:10.214Z,2.87
2018-12-18T14:57:37.674Z,3.37
2018-12-18T15:00:05.781Z,2.90
2018-12-18T15:02:33.209Z,3.13
2018-12-18T15:05:00.608Z,2.90
2018-12-18T15:07:28.041Z,2.43
2018-12-18T15:09:55.422Z,3.00
2018-12-18T15:12:22.867Z,3.43
2018-12-18T15:14:50.310Z,3.30
2018-12-18T15:17:17.700Z,3.10
2018-12-18T15:19:45.206Z,2.57
2018-12-18T15:22:12.609Z,3.20
2018-12-18T15:24:40.030Z,3.07
2018-12-18T15:27:07.450Z,3.03
2018-12-18T15:29:35.841Z,6.20
2018-12-18T15:32:03.674Z,12.73
2018-12-18T15:34:31.910Z,15.03
2018-12-18T15:36:59.349Z,15.40
2018-12-18T15:39:26.779Z,13.33
2018-12-18T15:41:54.183Z,9.43
2018-12-18T15:44:21.698Z,7.93
2018-12-18T15:46:59.405Z,8.37
2018-12-18T15:49:26.858Z,7.60
2018-12-18T15:51:55.247Z,3.33
2018-12-18T15:54:23.782Z,4.40
2018-12-18T15:56:51.428Z,3.70
2018-12-18T15:59:22.345Z,3.40
2018-12-18T16:02:00.156Z,4.60
2018-12-18T16:04:27.653Z,5.80
2018-12-18T16:06:57.629Z,5.10
2018-12-18T16:09:25.098Z,5.40
2018-12-18T16:11:55.119Z,5.20
2018-12-18T16:14:22.674Z,4.03
2018-12-18T16:16:50.438Z,3.20
2018-12-18T16:19:18.842Z,3.63
2018-12-18T16:21:46.283Z,2.83
2018-12-18T16:24:13.698Z,3.07
2018-12-18T16:26:45.101Z,3.40
2018-12-18T16:29:12.697Z,3.10
2018-12-18T16:31:40.618Z,3.47
2018-12-18T16:34:08.483Z,3.37
2018-12-18T16:36:36.472Z,6.47
2018-12-18T16:39:11.102Z,7.20
2018-12-18T16:41:38.929Z,8.97
2018-12-18T16:44:06.403Z,7.83
2018-12-18T16:46:37.665Z,9.07
2018-12-18T16:49:05.136Z,11.10
2018-12-18T16:51:32.704Z,10.23
2018-12-18T16:54:00.279Z,12.40
2018-12-18T16:56:27.976Z,15.00
2018-12-18T16:58:55.530Z,17.90
2018-12-18T17:01:22.916Z,15.07
2018-12-18T17:03:50.337Z,11.53
2018-12-18T17:06:17.782Z,10.97
2018-12-18T17:08:45.198Z,8.43
2018-12-18T17:11:12.624Z,9.33
2018-12-18T17:13:40.151Z,6.50
2018-12-18T17:16:07.613Z,7.70
2018-12-18T17:18:35.101Z,7.50
2018-12-18T17:21:02.599Z,10.03
2018-12-18T17:23:30.001Z,8.37
2018-12-18T17:25:57.369Z,9.47
2018-12-18T17:28:24.821Z,8.10
2018-12-18T17:30:52.283Z,7.87
2018-12-18T17:33:19.690Z,6.77
2018-12-18T17:35:47.243Z,6.50
2018-12-18T17:38:14.874Z,6.40
2018-12-18T17:40:43.595Z,6.37
2018-12-18T17:43:11.085Z,6.73
2018-12-18T17:45:38.485Z,6.03
2018-12-18T17:48:05.996Z,7.20
2018-12-18T17:50:33.469Z,7.43
2018-12-18T17:53:01.051Z,7.30
2018-12-18T17:55:28.516Z,8.30
2018-12-18T18:00:22.446Z,8.00
2018-12-18T18:02:49.882Z,7.67
2018-12-18T18:05:17.286Z,7.10
2018-12-18T18:07:44.694Z,8.93
2018-12-18T18:10:12.148Z,7.13
2018-12-18T18:12:39.588Z,7.70
2018-12-18T18:15:29.372Z,7.37
2018-12-18T18:18:11.359Z,7.73
2018-12-18T18:20:38.803Z,6.67
2018-12-18T18:23:06.286Z,6.17
2018-12-18T18:25:34.197Z,7.33
2018-12-18T18:28:01.710Z,7.93
2018-12-18T18:30:30.892Z,8.37
2018-12-18T18:32:58.278Z,16.47
2018-12-18T18:35:25.876Z,17.80
2018-12-18T18:37:53.293Z,12.57
2018-12-18T18:40:20.777Z,10.03
2018-12-18T18:42:48.290Z,8.53
2018-12-18T18:45:15.746Z,8.67
2018-12-18T18:47:43.151Z,9.83
2018-12-18T18:50:13.243Z,18.30
2018-12-18T18:52:42.840Z,13.53
2018-12-18T18:55:10.432Z,13.03
2018-12-18T18:57:37.894Z,8.60
2018-12-18T19:00:06.818Z,10.23
2018-12-18T19:02:34.238Z,8.60
2018-12-18T19:05:01.695Z,10.73
2018-12-18T19:07:29.113Z,10.67
2018-12-18T19:09:56.549Z,9.63
2018-12-18T19:12:23.948Z,8.33
2018-12-18T19:14:51.338Z,9.27
2018-12-18T19:17:18.747Z,10.43
2018-12-18T19:19:46.158Z,14.67
2018-12-18T19:22:55.723Z,13.17
2018-12-18T19:25:23.122Z,11.37
2018-12-18T19:27:50.504Z,8.83
2018-12-18T19:30:17.984Z,9.40
2018-12-18T19:32:46.911Z,9.67
2018-12-18T19:35:14.655Z,9.03
2018-12-18T19:37:42.072Z,8.57
2018-12-18T19:40:10.336Z,5.60
2018-12-18T19:42:38.114Z,6.70
2018-12-18T19:45:06.334Z,6.00
2018-12-18T19:47:33.767Z,7.50
2018-12-18T19:50:01.210Z,6.83
2018-12-18T19:52:28.629Z,6.20
2018-12-18T19:54:56.026Z,6.23
2018-12-18T19:57:23.495Z,7.07
2018-12-18T19:59:50.927Z,7.07
2018-12-18T20:02:18.403Z,6.50
2018-12-18T20:04:45.914Z,7.13
2018-12-18T20:07:13.315Z,7.77
2018-12-18T20:09:40.826Z,7.23
2018-12-18T20:12:08.961Z,8.80
2018-12-18T20:14:36.790Z,8.80
2018-12-18T20:17:04.338Z,8.70
2018-12-18T20:19:31.898Z,8.23
2018-12-18T20:21:59.349Z,8.67
2018-12-18T20:24:26.772Z,10.47
2018-12-18T20:26:54.213Z,11.13
2018-12-18T20:29:21.679Z,13.13
2018-12-18T20:31:49.074Z,11.37
2018-12-18T20:34:16.530Z,8.67
2018-12-18T20:36:45.261Z,12.47
2018-12-18T20:39:12.847Z,21.77
2018-12-18T20:41:40.348Z,16.80
2018-12-18T20:44:07.854Z,14.20
2018-12-18T20:46:35.474Z,14.80
2018-12-18T20:49:02.990Z,17.87
2018-12-18T20:51:30.490Z,17.03
2018-12-18T20:53:57.970Z,17.47
2018-12-18T20:56:25.541Z,10.60
2018-12-18T20:58:52.994Z,12.13
2018-12-18T21:01:20.416Z,11.70
2018-12-18T21:03:47.823Z,11.20
2018-12-18T21:06:15.302Z,13.10
2018-12-18T21:08:42.691Z,12.57
2018-12-18T21:11:10.096Z,15.87
2018-12-18T21:13:37.577Z,16.03
2018-12-18T21:16:05.051Z,14.00
2018-12-18T21:18:32.448Z,14.00
2018-12-18T21:20:59.915Z,11.67
2018-12-18T21:23:27.318Z,12.13
2018-12-18T21:25:54.845Z,14.13
2018-12-18T21:28:22.384Z,14.23
2018-12-18T21:30:49.850Z,15.13
2018-12-18T21:33:17.348Z,18.63
2018-12-18T21:35:44.979Z,25.87
2018-12-18T21:38:13.586Z,21.50
2018-12-18T21:40:51.028Z,22.03
2018-12-18T21:43:18.505Z,22.07
2018-12-18T21:45:46.427Z,18.80
2018-12-18T21:48:13.913Z,18.37
2018-12-18T21:50:42.444Z,17.33
2018-12-18T21:53:09.957Z,15.33
2018-12-18T21:55:37.412Z,15.13
2018-12-18T21:58:04.930Z,12.20
2018-12-18T22:00:32.369Z,12.20
2018-12-18T22:02:59.871Z,12.30
2018-12-18T22:05:27.339Z,10.57
2018-12-18T22:07:54.865Z,11.50
2018-12-18T22:10:22.359Z,11.33
2018-12-18T22:12:49.838Z,11.00
2018-12-18T22:15:17.320Z,11.37
2018-12-18T22:17:44.799Z,11.53
2018-12-18T22:20:12.295Z,12.27
2018-12-18T22:22:39.846Z,12.63
2018-12-18T22:25:07.326Z,13.97
2018-12-18T22:27:34.836Z,13.40
2018-12-18T22:30:07.108Z,13.27
2018-12-18T22:32:46.964Z,12.37
2018-12-18T22:35:14.525Z,14.40
2018-12-18T22:37:42.060Z,15.03
2018-12-18T22:40:09.591Z,15.20
2018-12-18T22:42:37.841Z,15.10
2018-12-18T22:45:05.598Z,16.47
2018-12-18T22:47:33.794Z,15.33
2018-12-18T22:50:01.398Z,15.97
2018-12-18T22:52:28.852Z,15.40
2018-12-18T22:54:56.566Z,18.97
2018-12-18T22:57:24.098Z,17.87
2018-12-18T22:59:51.571Z,18.90
2018-12-18T23:02:19.097Z,18.30
2018-12-18T23:04:46.768Z,19.93
2018-12-18T23:07:14.262Z,17.50
2018-12-18T23:09:42.702Z,20.63
2018-12-18T23:12:13.634Z,25.03
2018-12-18T23:14:47.631Z,27.67
2018-12-18T23:17:15.751Z,26.03
2018-12-18T23:22:41.746Z,28.73
2018-12-18T23:25:09.294Z,21.37
2018-12-18T23:27:36.986Z,21.17
2018-12-18T23:30:05.028Z,21.90
2018-12-18T23:32:32.558Z,19.07
2018-12-18T23:35:00.187Z,19.27
2018-12-18T23:37:27.620Z,19.60
2018-12-18T23:39:55.156Z,19.40
2018-12-18T23:42:22.687Z,19.97
2018-12-18T23:44:50.272Z,19.67
2018-12-18T23:47:17.800Z,20.10
2018-12-18T23:49:45.326Z,20.20
2018-12-18T23:52:13.020Z,20.07
2018-12-18T23:54:40.512Z,20.03
2018-12-18T23:57:08.021Z,20.53
2018-12-18T23:59:35.494Z,19.63
